Time;durP1;ratioP1;P1;durP2;ratioP2;P2;SDS_P1;SDS_P2;PMS_P1;PMS_P2;Temp;Humidity;BMP_temperature;BMP_pressure;BME280_temperature;BME280_humidity;BME280_pressure;Samples;Min_cycle;Max_cycle;Signal;HPM_P1;HPM_P2
2021/08/26 00:07:56;;;;;;;6.00;4.60;;;;;;;16.88;58.18;99584.48;116496;1190;22116;-75
2021/08/26 00:10:25;;;;;;;6.40;4.10;;;;;;;16.86;58.18;99576.80;116532;1189;22048;-75
2021/08/26 00:12:54;;;;;;;6.60;4.20;;;;;;;16.85;58.26;99576.90;116416;1192;21900;-76
2021/08/26 00:15:23;;;;;;;6.60;4.70;;;;;;;16.84;58.30;99570.89;116382;1192;21972;-75
2021/08/26 00:17:52;;;;;;;7.70;4.60;;;;;;;16.82;58.30;99568.54;116326;1196;21907;-76
2021/08/26 00:20:21;;;;;;;6.10;5.00;;;;;;;16.81;58.43;99567.73;116332;1193;22875;-75
2021/08/26 00:22:50;;;;;;;5.00;4.30;;;;;;;16.82;58.50;99562.35;116454;1193;22936;-75
2021/08/26 00:25:20;;;;;;;5.20;4.40;;;;;;;16.83;58.62;99555.02;116494;1193;21903;-75
2021/08/26 00:27:50;;;;;;;7.20;4.70;;;;;;;16.83;58.58;99550.01;116396;1193;21925;-75
2021/08/26 00:30:20;;;;;;;5.50;4.50;;;;;;;16.83;58.64;99547.88;116368;1193;21917;-75
2021/08/26 00:32:49;;;;;;;6.00;4.30;;;;;;;16.82;58.70;99545.23;116689;1190;21945;-74
2021/08/26 00:35:19;;;;;;;4.70;4.00;;;;;;;16.82;58.91;99540.32;116778;1185;21884;-74
2021/08/26 00:37:49;;;;;;;5.30;4.20;;;;;;;16.82;58.83;99536.27;116706;1190;22306;-75
2021/08/26 00:40:18;;;;;;;5.70;4.40;;;;;;;16.83;58.98;99532.56;116559;1189;22952;-75
2021/08/26 00:42:48;;;;;;;5.40;4.30;;;;;;;16.82;58.88;99527.57;116538;1187;21858;-76
2021/08/26 00:45:18;;;;;;;5.30;4.60;;;;;;;16.80;59.25;99526.73;116647;1190;22903;-75
2021/08/26 00:47:48;;;;;;;4.60;3.90;;;;;;;16.77;59.40;99525.65;116684;1190;21895;-75
2021/08/26 00:50:17;;;;;;;7.40;4.40;;;;;;;16.76;59.72;99523.08;116684;1189;21970;-75
2021/08/26 00:52:47;;;;;;;5.90;4.50;;;;;;;16.73;60.10;99520.02;116668;1190;22247;-76
2021/08/26 00:55:18;;;;;;;5.10;4.20;;;;;;;16.70;60.40;99515.13;116741;1187;21894;-75
2021/08/26 00:57:47;;;;;;;5.30;4.30;;;;;;;16.62;60.46;99519.14;116688;1190;21886;-74
2021/08/26 01:00:17;;;;;;;10.10;4.60;;;;;;;16.53;60.97;99522.27;116531;1190;24147;-75
2021/08/26 01:03:13;;;;;;;6.80;4.60;;;;;;;16.46;61.45;99521.34;116754;1190;22879;-74
2021/08/26 01:05:58;;;;;;;4.90;4.40;;;;;;;16.38;61.89;99517.88;116747;1189;21902;-75
2021/08/26 01:08:38;;;;;;;5.80;5.10;;;;;;;16.32;62.56;99517.14;116663;1189;21899;-75
2021/08/26 01:11:08;;;;;;;6.60;5.50;;;;;;;16.25;62.97;99515.44;116713;1190;21892;-74
2021/08/26 01:13:41;;;;;;;9.40;6.10;;;;;;;16.16;63.48;99516.16;116690;1190;21908;-74
2021/08/26 01:16:13;;;;;;;6.40;4.70;;;;;;;16.08;64.00;99512.36;116702;1190;21895;-75
2021/08/26 01:18:45;;;;;;;7.00;5.40;;;;;;;15.99;64.59;99510.27;116722;1189;23623;-74
2021/08/26 01:21:23;;;;;;;5.70;5.20;;;;;;;15.90;65.03;99502.59;116753;1190;21894;-75
2021/08/26 01:23:58;;;;;;;8.20;5.80;;;;;;;15.82;65.71;99503.10;116664;1189;21894;-75
2021/08/26 01:26:38;;;;;;;8.20;5.90;;;;;;;15.76;66.19;99499.59;116795;1189;21891;-75
2021/08/26 01:29:08;;;;;;;6.60;5.10;;;;;;;15.71;66.72;99495.17;116548;1190;21891;-76
2021/08/26 01:31:39;;;;;;;6.60;5.10;;;;;;;15.67;67.38;99494.37;116799;1186;22638;-75
2021/08/26 01:34:08;;;;;;;6.70;5.20;;;;;;;15.64;67.71;99494.43;116708;1190;21908;-74
2021/08/26 01:36:37;;;;;;;5.50;4.90;;;;;;;15.58;68.04;99495.25;116670;1188;21906;-75
2021/08/26 01:39:10;;;;;;;6.20;5.10;;;;;;;15.56;68.56;99493.11;116693;1189;21920;-75
2021/08/26 01:41:54;;;;;;;7.90;5.90;;;;;;;15.52;68.93;99489.39;116658;1189;21895;-75
2021/08/26 01:44:30;;;;;;;6.60;5.40;;;;;;;15.48;69.19;99487.54;116650;1190;21888;-75
2021/08/26 01:47:17;;;;;;;6.40;5.00;;;;;;;15.41;69.43;99488.88;116695;1190;21885;-76
2021/08/26 01:49:52;;;;;;;6.50;4.90;;;;;;;15.34;69.80;99484.66;116726;1190;21890;-75
2021/08/26 01:52:26;;;;;;;6.00;4.70;;;;;;;15.30;70.14;99484.89;116673;1189;21885;-75
2021/08/26 01:55:01;;;;;;;10.00;5.40;;;;;;;15.28;70.63;99482.21;116700;1190;23468;-75
2021/08/26 01:57:32;;;;;;;6.50;5.20;;;;;;;15.25;70.85;99477.91;116580;1188;21888;-75
2021/08/26 02:00:08;;;;;;;6.70;5.70;;;;;;;15.21;71.12;99476.15;116604;1189;22762;-75
2021/08/26 02:02:37;;;;;;;6.40;5.80;;;;;;;15.17;71.29;99475.77;116674;1189;21882;-75
2021/08/26 02:05:07;;;;;;;7.80;6.00;;;;;;;15.14;71.74;99474.81;116629;1190;21845;-75
2021/08/26 02:07:35;;;;;;;7.00;6.00;;;;;;;15.12;72.07;99471.92;116523;1190;22920;-75
2021/08/26 02:10:05;;;;;;;7.10;6.40;;;;;;;15.11;72.45;99473.86;116625;1189;21910;-75
2021/08/26 02:12:34;;;;;;;7.70;5.30;;;;;;;15.10;72.66;99471.83;116594;1189;22862;-76
2021/08/26 02:15:04;;;;;;;6.60;5.20;;;;;;;15.10;72.76;99467.94;116660;1191;21967;-75
2021/08/26 02:17:33;;;;;;;6.90;6.20;;;;;;;15.09;72.92;99463.23;116620;1190;21895;-75
2021/08/26 02:20:06;;;;;;;8.30;5.70;;;;;;;15.07;73.08;99461.30;116689;1189;21884;-75
2021/08/26 02:22:35;;;;;;;8.60;5.70;;;;;;;15.04;73.43;99463.45;116655;1189;22818;-76
2021/08/26 02:25:07;;;;;;;7.30;6.50;;;;;;;15.02;73.65;99456.05;116497;1190;21913;-75
2021/08/26 02:27:36;;;;;;;10.20;6.60;;;;;;;15.01;73.78;99455.33;116637;1191;21884;-76
2021/08/26 02:30:08;;;;;;;7.60;5.70;;;;;;;14.99;73.92;99454.89;116495;1193;21891;-75
2021/08/26 02:32:37;;;;;;;9.10;5.90;;;;;;;14.97;74.07;99454.42;116690;1191;21899;-76
2021/08/26 02:35:08;;;;;;;7.90;6.60;;;;;;;14.93;74.21;99450.45;116669;1190;23346;-75
2021/08/26 02:37:37;;;;;;;6.00;5.40;;;;;;;14.90;74.45;99447.36;116672;1190;22865;-76
2021/08/26 02:40:07;;;;;;;7.50;5.80;;;;;;;14.89;74.67;99448.89;116505;1191;21894;-74
2021/08/26 02:42:36;;;;;;;6.70;6.00;;;;;;;14.87;74.64;99445.03;116396;1191;21899;-74
2021/08/26 02:45:06;;;;;;;6.90;6.20;;;;;;;14.83;74.89;99438.80;116374;1193;22645;-74
2021/08/26 02:47:35;;;;;;;6.50;5.80;;;;;;;14.80;74.96;99439.19;116342;1192;22935;-74
2021/08/26 02:50:05;;;;;;;7.30;6.30;;;;;;;14.78;75.35;99441.27;116366;1193;23448;-75
2021/08/26 02:52:34;;;;;;;7.10;6.40;;;;;;;14.77;75.50;99439.90;116482;1191;23560;-75
2021/08/26 02:55:03;;;;;;;6.00;5.40;;;;;;;14.77;75.63;99439.21;116359;1192;23475;-74
2021/08/26 02:57:32;;;;;;;6.10;5.40;;;;;;;14.79;75.73;99437.11;116375;1193;21894;-75
2021/08/26 03:00:01;;;;;;;9.40;7.00;;;;;;;14.78;75.69;99433.89;116470;1190;21902;-75
2021/08/26 03:02:30;;;;;;;6.50;5.80;;;;;;;14.79;76.02;99430.48;116547;1190;22879;-76
2021/08/26 03:04:59;;;;;;;6.90;6.30;;;;;;;14.80;76.00;99430.02;116581;1186;21885;-74
2021/08/26 03:07:28;;;;;;;9.00;6.50;;;;;;;14.80;75.97;99422.48;116668;1189;22332;-74
2021/08/26 03:09:57;;;;;;;7.50;6.60;;;;;;;14.79;75.99;99420.70;116679;1189;21945;-74
2021/08/26 03:12:26;;;;;;;7.60;6.10;;;;;;;14.81;76.11;99420.17;116624;1190;22289;-75
2021/08/26 03:14:55;;;;;;;7.50;6.80;;;;;;;14.83;76.32;99420.71;116657;1189;22894;-75
2021/08/26 03:17:24;;;;;;;10.60;6.70;;;;;;;14.83;76.18;99420.02;116727;1189;23475;-75
2021/08/26 03:19:53;;;;;;;7.60;6.80;;;;;;;14.82;76.31;99412.55;116689;1190;23487;-75
2021/08/26 03:22:22;;;;;;;10.40;7.70;;;;;;;14.82;76.47;99409.27;116638;1190;23451;-75
2021/08/26 03:24:51;;;;;;;8.30;7.50;;;;;;;14.84;76.42;99411.66;116664;1187;23446;-74
2021/08/26 03:27:20;;;;;;;8.20;7.10;;;;;;;14.87;76.40;99415.45;116719;1189;21849;-75
2021/08/26 03:29:49;;;;;;;7.70;6.90;;;;;;;14.86;76.40;99413.52;116629;1190;21875;-74
2021/08/26 03:32:18;;;;;;;7.90;7.10;;;;;;;14.85;76.42;99409.32;116692;1190;21896;-74
2021/08/26 03:34:46;;;;;;;7.60;6.80;;;;;;;14.83;76.58;99412.52;116700;1189;23496;-75
2021/08/26 03:37:16;;;;;;;7.90;7.10;;;;;;;14.83;76.60;99418.91;116531;1190;23297;-76
2021/08/26 03:39:45;;;;;;;8.70;6.90;;;;;;;14.85;76.82;99420.93;116587;1190;21895;-75
2021/08/26 03:42:13;;;;;;;9.00;7.30;;;;;;;14.87;76.94;99423.54;116624;1191;22598;-74
2021/08/26 03:44:43;;;;;;;6.90;6.20;;;;;;;14.88;76.89;99421.94;116581;1190;21898;-75
2021/08/26 03:47:12;;;;;;;7.30;6.60;;;;;;;14.89;76.92;99420.90;116680;1190;21927;-75
2021/08/26 03:49:41;;;;;;;6.80;6.10;;;;;;;14.88;76.83;99415.23;116524;1190;21904;-75
2021/08/26 03:52:10;;;;;;;7.60;6.90;;;;;;;14.87;76.74;99415.52;116597;1190;23438;-75
2021/08/26 03:54:39;;;;;;;7.10;6.40;;;;;;;14.86;76.98;99411.04;116285;1192;22915;-75
2021/08/26 03:57:08;;;;;;;8.20;6.80;;;;;;;14.87;77.02;99411.73;116305;1193;21900;-75
2021/08/26 03:59:37;;;;;;;7.00;6.30;;;;;;;14.88;77.09;99411.55;116177;1193;23570;-75
2021/08/26 04:02:06;;;;;;;6.10;5.60;;;;;;;14.88;77.20;99415.19;116184;1193;21896;-75
2021/08/26 04:04:35;;;;;;;7.20;6.50;;;;;;;14.87;77.23;99419.08;116193;1195;21896;-75
2021/08/26 04:07:04;;;;;;;7.30;6.60;;;;;;;14.87;77.25;99417.45;116276;1193;21909;-74
2021/08/26 04:09:33;;;;;;;6.70;6.00;;;;;;;14.89;77.29;99411.01;116266;1193;23450;-74
2021/08/26 04:12:03;;;;;;;6.90;6.30;;;;;;;14.90;77.38;99413.87;116258;1194;22109;-74
2021/08/26 04:14:32;;;;;;;6.40;5.80;;;;;;;14.90;77.43;99412.97;116587;1190;21899;-75
2021/08/26 04:17:01;;;;;;;8.10;6.90;;;;;;;14.90;77.51;99410.73;116623;1190;21869;-74
2021/08/26 04:19:31;;;;;;;6.10;5.50;;;;;;;14.90;77.54;99406.91;116580;1190;21885;-75
2021/08/26 04:22:00;;;;;;;6.80;6.20;;;;;;;14.93;77.55;99405.24;116615;1187;21895;-75
2021/08/26 04:24:28;;;;;;;7.00;6.40;;;;;;;14.95;77.66;99408.87;116597;1190;22931;-75
2021/08/26 04:26:57;;;;;;;7.00;6.40;;;;;;;14.95;77.61;99406.73;116573;1189;21895;-75
2021/08/26 04:29:26;;;;;;;7.30;6.60;;;;;;;14.96;77.63;99403.25;116349;1193;22619;-75
2021/08/26 04:31:55;;;;;;;7.10;6.50;;;;;;;14.98;77.70;99400.85;116375;1192;22642;-75
2021/08/26 04:34:24;;;;;;;6.80;6.10;;;;;;;15.01;77.83;99399.67;116340;1192;22915;-75
2021/08/26 04:36:54;;;;;;;6.30;5.70;;;;;;;15.02;77.91;99399.09;116477;1192;23549;-75
2021/08/26 04:39:23;;;;;;;7.40;6.30;;;;;;;15.05;77.83;99392.02;116361;1193;23464;-74
2021/08/26 04:41:52;;;;;;;7.50;5.90;;;;;;;15.07;77.76;99392.27;116329;1193;21859;-75
2021/08/26 04:44:21;;;;;;;8.50;6.20;;;;;;;15.11;77.91;99392.63;116446;1192;22861;-75
2021/08/26 04:46:50;;;;;;;8.70;5.80;;;;;;;15.14;77.91;99392.83;116415;1193;21958;-74
2021/08/26 04:49:19;;;;;;;7.20;6.50;;;;;;;15.17;77.91;99393.83;116657;1190;21918;-74
2021/08/26 04:51:48;;;;;;;7.00;6.40;;;;;;;15.20;77.84;99395.92;116565;1190;22853;-75
2021/08/26 04:54:18;;;;;;;6.60;5.90;;;;;;;15.21;77.72;99393.77;116574;1190;22909;-74
2021/08/26 04:56:47;;;;;;;7.70;7.00;;;;;;;15.22;77.59;99392.47;116586;1190;21903;-74
2021/08/26 04:59:16;;;;;;;8.00;5.50;;;;;;;15.22;77.65;99389.45;116665;1189;21895;-75
2021/08/26 05:01:44;;;;;;;7.00;5.20;;;;;;;15.24;77.66;99385.24;116598;1190;21884;-75
2021/08/26 05:04:20;;;;;;;5.60;5.00;;;;;;;15.26;77.67;99383.98;116494;1193;21898;-75
2021/08/26 05:06:51;;;;;;;8.70;5.10;;;;;;;15.28;77.52;99382.17;116630;1189;23472;-75
2021/08/26 05:09:20;;;;;;;6.20;5.40;;;;;;;15.30;77.61;99378.71;116695;1189;21912;-75
2021/08/26 05:11:54;;;;;;;6.20;5.50;;;;;;;15.33;77.79;99380.52;116588;1190;21892;-75
2021/08/26 05:14:24;;;;;;;5.80;5.20;;;;;;;15.37;77.55;99375.30;116648;1190;21885;-76
2021/08/26 05:16:53;;;;;;;7.50;4.90;;;;;;;15.42;77.43;99376.60;116609;1190;21895;-75
2021/08/26 05:19:21;;;;;;;7.50;6.30;;;;;;;15.42;77.04;99375.05;116574;1186;21905;-75
2021/08/26 05:21:50;;;;;;;6.20;5.50;;;;;;;15.39;77.04;99373.48;116602;1190;21891;-76
2021/08/26 05:24:19;;;;;;;5.40;4.70;;;;;;;15.39;77.25;99373.07;116640;1187;21900;-74
2021/08/26 05:26:48;;;;;;;8.30;5.40;;;;;;;15.45;77.56;99367.48;116551;1190;21909;-74
2021/08/26 05:29:17;;;;;;;7.50;6.30;;;;;;;15.51;77.39;99369.57;116588;1190;21912;-74
2021/08/26 05:31:46;;;;;;;7.70;5.70;;;;;;;15.58;77.46;99371.20;116621;1190;22862;-75
2021/08/26 05:34:16;;;;;;;5.50;5.00;;;;;;;15.66;77.50;99365.22;117291;1191;21914;-74
2021/08/26 05:36:45;;;;;;;5.40;4.70;;;;;;;15.72;77.18;99365.08;116600;1189;24158;-74
2021/08/26 05:39:14;;;;;;;7.70;5.10;;;;;;;15.80;77.24;99366.81;116654;1190;21889;-75
2021/08/26 05:41:44;;;;;;;10.70;6.00;;;;;;;15.88;77.08;99369.58;116577;1190;21947;-75
2021/08/26 05:44:15;;;;;;;5.70;5.20;;;;;;;15.97;77.12;99376.33;116554;1190;21896;-75
2021/08/26 05:46:45;;;;;;;7.60;5.30;;;;;;;16.10;77.22;99378.00;116540;1190;22597;-74
2021/08/26 05:49:14;;;;;;;5.30;4.80;;;;;;;16.26;77.29;99375.77;116555;1190;21918;-74
2021/08/26 05:51:43;;;;;;;5.80;5.20;;;;;;;16.37;76.52;99375.69;116288;1194;21899;-75
2021/08/26 05:54:12;;;;;;;8.40;5.10;;;;;;;16.42;75.59;99377.14;116338;1189;23563;-74
2021/08/26 05:56:41;;;;;;;6.60;5.60;;;;;;;16.44;75.23;99372.96;116326;1192;21903;-75
2021/08/26 05:59:10;;;;;;;5.30;4.80;;;;;;;16.47;75.17;99374.63;116344;1192;22865;-75
2021/08/26 06:01:39;;;;;;;5.10;4.60;;;;;;;16.47;74.79;99375.93;116339;1193;21898;-75
2021/08/26 06:04:09;;;;;;;5.70;5.00;;;;;;;16.47;74.53;99377.30;116399;1192;21908;-74
2021/08/26 06:06:37;;;;;;;6.40;4.80;;;;;;;16.45;74.42;99383.81;116361;1193;23545;-74
2021/08/26 06:09:07;;;;;;;5.30;3.90;;;;;;;16.45;74.48;99383.44;116271;1189;23444;-74
2021/08/26 06:11:36;;;;;;;5.80;4.30;;;;;;;16.45;74.41;99384.63;116578;1189;23574;-75
2021/08/26 06:14:05;;;;;;;5.80;4.50;;;;;;;16.45;74.35;99386.06;116595;1190;23669;-75
2021/08/26 06:16:34;;;;;;;4.90;4.30;;;;;;;16.46;74.31;99382.14;116692;1190;23492;-75
2021/08/26 06:19:04;;;;;;;6.00;4.00;;;;;;;16.43;73.80;99382.33;116702;1190;22863;-75
2021/08/26 06:21:34;;;;;;;5.10;4.40;;;;;;;16.34;73.56;99382.74;116695;1187;22613;-78
2021/08/26 06:24:06;;;;;;;8.00;4.40;;;;;;;16.31;73.89;99383.79;116699;1189;21902;-79
2021/08/26 06:26:37;;;;;;;7.00;4.10;;;;;;;16.32;74.45;99385.05;116488;1187;23474;-78
2021/08/26 06:29:06;;;;;;;6.70;4.30;;;;;;;16.40;74.89;99385.90;116507;1189;21893;-77
2021/08/26 06:31:35;;;;;;;5.60;4.10;;;;;;;16.48;74.56;99385.70;116655;1191;22931;-78
2021/08/26 06:34:05;;;;;;;6.50;3.80;;;;;;;16.49;73.92;99384.49;116570;1190;23567;-78
2021/08/26 06:36:34;;;;;;;4.30;3.70;;;;;;;16.50;73.76;99387.55;116513;1191;23481;-78
2021/08/26 06:39:03;;;;;;;5.80;3.80;;;;;;;16.54;73.89;99385.35;116537;1190;21886;-77
2021/08/26 06:41:33;;;;;;;4.80;4.30;;;;;;;16.57;73.55;99387.19;116615;1190;21904;-78
2021/08/26 06:44:02;;;;;;;3.60;2.90;;;;;;;16.60;73.50;99386.20;116520;1192;22607;-78
2021/08/26 06:46:31;;;;;;;5.90;4.00;;;;;;;16.65;73.40;99387.91;116553;1191;21911;-78
2021/08/26 06:49:00;;;;;;;4.70;3.80;;;;;;;16.68;73.01;99389.09;116422;1193;22874;-78
2021/08/26 06:51:29;;;;;;;6.40;4.40;;;;;;;16.68;72.70;99389.58;116498;1192;22912;-78
2021/08/26 06:53:58;;;;;;;5.50;4.20;;;;;;;16.66;72.51;99388.75;116314;1190;22617;-77
2021/08/26 06:56:27;;;;;;;7.00;3.80;;;;;;;16.65;72.37;99392.92;116374;1193;21912;-77
2021/08/26 06:58:57;;;;;;;5.20;3.70;;;;;;;16.63;72.12;99388.24;116471;1191;24013;-77
2021/08/26 07:01:26;;;;;;;5.70;3.70;;;;;;;16.58;72.19;99387.49;116456;1193;22306;-77
2021/08/26 07:03:55;;;;;;;5.70;3.60;;;;;;;16.56;72.33;99383.34;116507;1193;21899;-78
2021/08/26 07:06:25;;;;;;;6.00;4.30;;;;;;;16.60;72.69;99384.06;116241;1194;21913;-78
2021/08/26 07:08:55;;;;;;;7.70;4.20;;;;;;;16.63;72.67;99388.56;116363;1193;22872;-79
2021/08/26 07:11:24;;;;;;;5.80;3.60;;;;;;;16.66;72.70;99388.95;116130;1191;23453;-79
2021/08/26 07:13:53;;;;;;;6.50;3.80;;;;;;;16.70;72.51;99385.52;116262;1195;21891;-78
2021/08/26 07:16:22;;;;;;;7.10;4.00;;;;;;;16.73;72.46;99387.79;116194;1193;21906;-78
2021/08/26 07:18:52;;;;;;;4.80;3.70;;;;;;;16.72;71.96;99388.98;116040;1197;23558;-78
2021/08/26 07:21:21;;;;;;;5.60;3.70;;;;;;;16.69;71.81;99389.98;116040;1196;23561;-78
2021/08/26 07:23:50;;;;;;;5.30;3.40;;;;;;;16.66;71.91;99391.25;116049;1196;23637;-78
2021/08/26 07:26:19;;;;;;;7.40;4.20;;;;;;;16.65;71.90;99391.27;116260;1195;21917;-77
2021/08/26 07:28:49;;;;;;;7.20;3.90;;;;;;;16.64;71.92;99390.19;116487;1193;22227;-82
2021/08/26 07:31:19;;;;;;;7.40;3.70;;;;;;;16.64;72.31;99392.06;115815;1194;22226;-78
2021/08/26 07:33:48;;;;;;;4.50;3.70;;;;;;;16.66;72.34;99392.77;116106;1196;21901;-78
2021/08/26 07:36:18;;;;;;;5.30;3.90;;;;;;;16.68;72.42;99392.84;116135;1192;22540;-78
2021/08/26 07:38:46;;;;;;;8.20;3.80;;;;;;;16.70;72.52;99388.36;116420;1193;21906;-82
2021/08/26 07:41:16;;;;;;;5.40;4.50;;;;;;;16.74;72.51;99385.85;116436;1193;22500;-81
2021/08/26 07:43:45;;;;;;;6.20;4.00;;;;;;;16.78;72.37;99388.62;116361;1193;22669;-79
2021/08/26 07:46:14;;;;;;;10.10;4.00;;;;;;;16.81;72.15;99386.92;116507;1189;22876;-84
2021/08/26 07:48:43;;;;;;;6.90;4.20;;;;;;;16.78;71.83;99386.91;116226;1194;22754;-83
2021/08/26 07:51:12;;;;;;;8.10;4.50;;;;;;;16.81;72.48;99386.11;116559;1192;21893;-81
2021/08/26 07:53:42;;;;;;;6.20;4.20;;;;;;;16.98;73.26;99384.42;116589;1194;21894;-80
2021/08/26 07:56:11;;;;;;;8.10;5.10;;;;;;;17.13;72.87;99380.02;116548;1190;21884;-79
2021/08/26 07:58:40;;;;;;;5.00;4.00;;;;;;;17.34;73.13;99374.36;116526;1190;21897;-80
2021/08/26 08:01:09;;;;;;;6.80;4.40;;;;;;;17.59;73.03;99371.02;116664;1194;22894;-82
2021/08/26 08:03:38;;;;;;;7.50;4.20;;;;;;;17.94;73.22;99369.45;116615;1192;23490;-80
2021/08/26 08:06:08;;;;;;;8.60;4.90;;;;;;;18.23;72.06;99371.61;116608;1191;22629;-82
2021/08/26 08:08:37;;;;;;;6.50;4.90;;;;;;;18.43;70.71;99369.81;116621;1189;22616;-79
2021/08/26 08:11:06;;;;;;;4.90;3.70;;;;;;;18.61;69.87;99366.98;116202;1195;23629;-80
2021/08/26 08:13:37;;;;;;;4.90;3.60;;;;;;;18.76;68.80;99371.20;116072;1196;21918;-79
2021/08/26 08:16:07;;;;;;;6.30;4.40;;;;;;;18.78;67.23;99367.38;115769;1200;21929;-85
2021/08/26 08:18:36;;;;;;;4.30;3.30;;;;;;;18.71;66.51;99369.14;115767;1200;23487;-78
2021/08/26 08:21:05;;;;;;;8.00;3.70;;;;;;;18.60;66.09;99362.48;115767;1200;21897;-77
2021/08/26 08:23:34;;;;;;;5.10;3.80;;;;;;;18.45;66.00;99365.18;115632;1200;21911;-77
2021/08/26 08:26:03;;;;;;;5.20;3.40;;;;;;;18.28;65.77;99369.08;115640;1195;21929;-78
2021/08/26 08:28:32;;;;;;;6.30;4.20;;;;;;;18.03;65.84;99362.30;115640;1198;21958;-77
2021/08/26 08:31:01;;;;;;;9.60;5.80;;;;;;;17.81;66.62;99366.77;116051;1191;21905;-78
2021/08/26 08:33:33;;;;;;;6.40;4.50;;;;;;;17.59;66.97;99367.88;116264;1193;22957;-78
2021/08/26 08:36:02;;;;;;;7.00;5.00;;;;;;;17.40;67.74;99361.40;116750;1187;21902;-80
2021/08/26 08:38:42;;;;;;;8.80;5.20;;;;;;;17.30;68.83;99362.75;116798;1185;21895;-84
2021/08/26 08:41:19;;;;;;;6.10;4.60;;;;;;;17.28;69.59;99364.20;117030;1190;21888;-78
2021/08/26 08:43:49;;;;;;;6.30;4.40;;;;;;;17.25;70.03;99363.34;117123;1192;22924;-78
2021/08/26 08:46:21;;;;;;;10.80;5.20;;;;;;;17.23;70.17;99364.48;117169;1190;23805;-83
2021/08/26 08:48:56;;;;;;;5.70;5.10;;;;;;;17.23;70.43;99367.29;116795;1191;21911;-79
2021/08/26 08:51:29;;;;;;;9.20;6.90;;;;;;;17.17;70.24;99362.90;117046;1195;21909;-81
2021/08/26 08:53:58;;;;;;;7.00;5.90;;;;;;;17.12;70.40;99360.35;116902;1191;21910;-82
2021/08/26 08:56:28;;;;;;;6.30;5.30;;;;;;;17.12;70.77;99364.77;116700;1194;21911;-79
2021/08/26 08:59:00;;;;;;;5.10;4.60;;;;;;;17.20;71.27;99361.84;116492;1194;23433;-79
2021/08/26 09:01:29;;;;;;;8.40;5.60;;;;;;;17.31;71.59;99358.55;116213;1200;22955;-79
2021/08/26 09:04:09;;;;;;;6.90;4.80;;;;;;;17.43;71.61;99369.27;116096;1195;22972;-81
2021/08/26 09:06:40;;;;;;;9.20;4.80;;;;;;;17.55;71.35;99372.17;116265;1198;21892;-81
2021/08/26 09:09:11;;;;;;;4.80;3.40;;;;;;;17.61;70.93;99378.11;116408;1198;23665;-80
2021/08/26 09:11:51;;;;;;;4.80;3.50;;;;;;;17.60;70.36;99374.62;116361;1197;21904;-81
2021/08/26 09:14:27;;;;;;;4.90;3.90;;;;;;;17.58;69.99;99372.16;116217;1194;22076;-78
2021/08/26 09:16:58;;;;;;;4.00;3.60;;;;;;;17.55;69.93;99376.45;116173;1192;21901;-78
2021/08/26 09:19:30;;;;;;;5.60;4.40;;;;;;;17.56;69.98;99376.35;116477;1189;21920;-79
2021/08/26 09:22:06;;;;;;;5.70;4.90;;;;;;;17.55;69.91;99374.63;116473;1192;21888;-79
2021/08/26 09:24:49;;;;;;;5.10;4.10;;;;;;;17.57;70.15;99374.56;116384;1194;23643;-80
2021/08/26 09:27:40;;;;;;;4.70;4.20;;;;;;;17.60;70.07;99371.83;116527;1193;21915;-79
2021/08/26 09:30:14;;;;;;;;;;;;;;;17.60;69.83;99376.96;116682;1193;23436;-79
2021/08/26 09:32:46;;;;;;;5.10;3.80;;;;;;;17.53;69.99;99383.14;116450;1193;22631;-79
2021/08/26 09:35:23;;;;;;;6.90;3.40;;;;;;;17.51;69.91;99384.75;116397;1195;21902;-80
2021/08/26 09:37:57;;;;;;;10.00;3.80;;;;;;;17.44;69.32;99381.39;116817;1191;21897;-80
2021/08/26 09:40:31;;;;;;;8.00;4.40;;;;;;;17.34;69.16;99374.79;116843;1191;24290;-82
2021/08/26 09:43:07;;;;;;;6.20;3.90;;;;;;;17.23;69.19;99372.48;116938;1188;22598;-80
2021/08/26 09:45:46;;;;;;;7.20;4.10;;;;;;;17.13;69.74;99367.80;117124;1191;21896;-84
2021/08/26 09:48:17;;;;;;;6.10;4.30;;;;;;;17.07;70.38;99369.80;117129;1192;22245;-83
2021/08/26 09:50:51;;;;;;;6.70;5.30;;;;;;;17.08;71.22;99369.13;116511;1195;21900;-82
2021/08/26 09:53:32;;;;;;;6.00;4.50;;;;;;;17.11;71.92;99365.66;116686;1195;22072;-82
2021/08/26 09:56:06;;;;;;;6.60;4.10;;;;;;;17.17;72.40;99363.16;116427;1194;21894;-82
2021/08/26 09:58:36;;;;;;;5.20;4.40;;;;;;;17.27;72.98;99359.86;116375;1194;22954;-82
2021/08/26 10:01:20;;;;;;;5.60;4.80;;;;;;;17.41;73.39;99360.67;116058;1199;21891;-82
2021/08/26 10:03:52;;;;;;;4.10;3.70;;;;;;;17.66;74.15;99364.27;116017;1198;22963;-83
2021/08/26 10:06:22;;;;;;;4.50;4.10;;;;;;;17.91;73.66;99363.36;116123;1198;21912;-82
2021/08/26 10:08:51;;;;;;;7.80;4.70;;;;;;;18.20;74.20;99360.50;116450;1196;22631;-83
2021/08/26 10:11:21;;;;;;;6.60;4.90;;;;;;;18.65;74.00;99357.20;116413;1197;23461;-81
2021/08/26 10:13:51;;;;;;;5.60;4.50;;;;;;;18.96;72.37;99358.38;115547;1198;21910;-82
2021/08/26 10:16:21;;;;;;;10.40;7.60;;;;;;;19.21;71.17;99358.34;115327;1197;21917;-82
2021/08/26 10:18:54;;;;;;;6.40;5.30;;;;;;;19.49;70.83;99358.13;114949;1202;21938;-82
2021/08/26 10:21:23;;;;;;;3.80;2.90;;;;;;;20.02;71.55;99353.14;114930;1208;21936;-82
2021/08/26 10:23:53;;;;;;;5.10;3.50;;;;;;;20.59;69.89;99347.98;114918;1209;21918;-82
2021/08/26 10:26:23;;;;;;;4.00;3.30;;;;;;;21.11;67.79;99348.46;114819;1206;21908;-82
2021/08/26 10:28:53;;;;;;;5.30;2.90;;;;;;;21.35;63.80;99351.66;114777;1208;22895;-84
2021/08/26 10:32:01;;;;;;;4.50;3.10;;;;;;;21.27;61.06;99353.96;115123;1204;21931;-83
2021/08/26 10:34:32;;;;;;;4.30;2.70;;;;;;;21.06;59.99;99360.73;115324;1201;23619;-82
2021/08/26 10:37:01;;;;;;;4.30;2.60;;;;;;;20.85;59.85;99363.77;115358;1204;24502;-84
2021/08/26 10:39:39;;;;;;;5.00;2.80;;;;;;;20.66;59.96;99363.98;115943;1200;22921;-82
2021/08/26 10:42:28;;;;;;;3.10;2.40;;;;;;;20.49;60.92;99362.66;115749;1197;22239;-84
2021/08/26 10:45:22;;;;;;;3.80;2.60;;;;;;;20.32;60.93;99364.50;116335;1198;21933;-79
2021/08/26 10:47:56;;;;;;;4.30;3.50;;;;;;;20.12;61.28;99369.74;115717;1198;23497;-81
2021/08/26 10:50:26;;;;;;;3.90;2.70;;;;;;;20.01;62.11;99378.33;115962;1195;23463;-82
2021/08/26 10:53:13;;;;;;;5.60;2.90;;;;;;;19.91;62.24;99382.09;115785;1199;23590;-81
2021/08/26 10:55:50;;;;;;;5.60;3.80;;;;;;;19.80;62.13;99382.52;116093;1199;22939;-81
2021/08/26 10:58:43;;;;;;;5.20;3.30;;;;;;;19.74;62.21;99381.98;115988;1198;23464;-82
2021/08/26 11:01:32;;;;;;;4.50;3.00;;;;;;;19.71;62.54;99379.09;115834;1199;23555;-81
2021/08/26 11:04:16;;;;;;;7.30;2.90;;;;;;;19.77;62.71;99372.98;115936;1198;23393;-80
2021/08/26 11:06:47;;;;;;;4.60;2.40;;;;;;;19.89;62.23;99373.16;116118;1194;21872;-82
2021/08/26 11:09:20;;;;;;;5.10;3.00;;;;;;;19.93;61.26;99379.71;116157;1193;21958;-82
2021/08/26 11:11:57;;;;;;;2.80;1.90;;;;;;;19.82;60.09;99379.42;116575;1194;21894;-81
2021/08/26 11:14:28;;;;;;;4.90;2.70;;;;;;;19.62;59.50;99382.40;115931;1196;21949;-81
2021/08/26 11:17:04;;;;;;;2.90;2.00;;;;;;;19.40;59.42;99388.50;115853;1201;22954;-82
2021/08/26 11:19:38;;;;;;;3.00;1.60;;;;;;;19.14;59.39;99389.98;115988;1198;22074;-82
2021/08/26 11:22:10;;;;;;;4.20;3.80;;;;;;;18.87;59.33;99387.69;115417;1200;22774;-81
2021/08/26 11:24:39;;;;;;;;;;;;;;;18.66;59.80;99387.56;115978;1201;21919;-81
2021/08/26 11:27:20;;;;;;;4.30;2.70;;;;;;;18.41;60.32;99389.13;115779;1202;21910;-81
2021/08/26 11:29:50;;;;;;;7.20;3.20;;;;;;;18.21;61.06;99394.58;115419;1200;21911;-81
2021/08/26 11:32:24;;;;;;;4.70;3.50;;;;;;;18.07;61.84;99405.61;115014;1205;21944;-81
2021/08/26 11:34:57;;;;;;;4.00;3.40;;;;;;;17.93;62.55;99416.41;114943;1206;21922;-81
2021/08/26 11:37:31;;;;;;;4.40;3.00;;;;;;;17.81;63.45;99419.38;114951;1205;22915;-81
2021/08/26 11:40:11;;;;;;;5.70;3.30;;;;;;;17.70;63.96;99422.58;115570;1202;21907;-82
2021/08/26 11:42:49;;;;;;;8.10;4.30;;;;;;;17.60;64.38;99428.94;115820;1199;22634;-81
2021/08/26 11:45:30;;;;;;;6.10;4.50;;;;;;;17.50;64.82;99424.83;115938;1197;21898;-81
2021/08/26 11:48:06;;;;;;;11.60;3.90;;;;;;;17.39;65.16;99424.99;116217;1198;23492;-81
2021/08/26 11:50:44;;;;;;;7.60;3.50;;;;;;;17.32;65.66;99423.08;116347;1196;21977;-82